Time;durP1;ratioP1;P1;durP2;ratioP2;P2;SDS_P1;SDS_P2;PMS_P1;PMS_P2;Temp;Humidity;BMP_temperature;BMP_pressure;BME280_temperature;BME280_humidity;BME280_pressure;Samples;Min_cycle;Max_cycle;Signal;HPM_P1;HPM_P2
2022/07/26 00:01:22;;;;;;;0.60;0.60;;;;;;;22.92;80.43;95428.25;4278609;33;20195;-58
2022/07/26 00:03:49;;;;;;;1.10;1.10;;;;;;;22.99;79.62;95432.97;4282557;33;20195;-58
2022/07/26 00:06:15;;;;;;;2.60;1.77;;;;;;;23.03;79.52;95436.50;4275458;33;20225;-58
2022/07/26 00:08:40;;;;;;;1.13;1.13;;;;;;;23.07;79.85;95434.59;4270301;33;20195;-58
2022/07/26 00:11:06;;;;;;;1.63;1.57;;;;;;;23.05;80.15;95433.44;4272927;33;20210;-58
2022/07/26 00:13:32;;;;;;;1.53;1.33;;;;;;;23.06;80.11;95424.94;4273900;33;20199;-58
2022/07/26 00:15:57;;;;;;;1.10;1.10;;;;;;;23.06;79.40;95410.63;4275847;33;20213;-58
2022/07/26 00:18:23;;;;;;;0.87;0.87;;;;;;;23.02;79.62;95410.59;4272432;33;20214;-58
2022/07/26 00:20:48;;;;;;;0.70;0.70;;;;;;;22.96;80.55;95407.44;4268190;33;20258;-58
2022/07/26 00:23:14;;;;;;;0.80;0.80;;;;;;;22.94;81.14;95395.41;4257293;33;20199;-57
2022/07/26 00:25:40;;;;;;;1.30;1.20;;;;;;;22.90;80.51;95406.19;4275350;33;20214;-58
2022/07/26 00:28:05;;;;;;;1.77;1.67;;;;;;;22.98;80.77;95409.78;4273175;33;20234;-58
2022/07/26 00:30:31;;;;;;;0.90;0.90;;;;;;;22.82;81.98;95422.75;4266381;33;20248;-58
2022/07/26 00:32:57;;;;;;;4.63;1.10;;;;;;;22.87;81.11;95415.06;4276284;33;20187;-58
2022/07/26 00:35:22;;;;;;;1.03;1.03;;;;;;;22.91;80.54;95410.47;4274113;33;20195;-58
2022/07/26 00:37:47;;;;;;;1.10;1.10;;;;;;;22.96;80.65;95415.56;4276498;33;20215;-58
2022/07/26 00:40:14;;;;;;;1.43;1.40;;;;;;;22.99;80.02;95395.09;4276474;33;20257;-58
2022/07/26 00:42:39;;;;;;;0.83;0.83;;;;;;;23.00;80.41;95376.94;4274810;33;20187;-58
2022/07/26 00:45:07;;;;;;;2.63;1.10;;;;;;;23.01;80.07;95370.38;4277758;33;20244;-58
2022/07/26 00:47:33;;;;;;;1.07;1.07;;;;;;;22.93;80.65;95351.34;4273611;33;20215;-58
2022/07/26 00:49:59;;;;;;;0.73;0.73;;;;;;;23.00;80.13;95341.75;4281518;33;20245;-58
2022/07/26 00:52:24;;;;;;;1.00;1.00;;;;;;;22.96;80.98;95328.97;4262126;33;20258;-58
2022/07/26 00:54:53;;;;;;;0.80;0.80;;;;;;;22.95;80.62;95329.31;4274499;33;20247;-58
2022/07/26 00:57:20;;;;;;;2.17;1.00;;;;;;;23.03;79.89;95328.25;4260981;33;20226;-58
2022/07/26 00:59:46;;;;;;;0.93;0.93;;;;;;;22.95;80.50;95330.09;4260044;33;20238;-58
2022/07/26 01:02:11;;;;;;;1.00;1.00;;;;;;;22.96;80.13;95342.50;4275575;33;20265;-58
2022/07/26 01:04:37;;;;;;;0.70;0.70;;;;;;;22.95;80.22;95332.03;4281319;33;20213;-58
2022/07/26 01:07:03;;;;;;;1.63;1.07;;;;;;;22.93;80.65;95332.41;4272186;33;20187;-58
2022/07/26 01:09:29;;;;;;;0.60;0.60;;;;;;;22.94;79.89;95333.19;4273891;33;20194;-58
2022/07/26 01:11:54;;;;;;;0.53;0.53;;;;;;;22.93;79.89;95337.81;4269789;33;20229;-59
2022/07/26 01:14:22;;;;;;;0.60;0.60;;;;;;;22.97;79.82;95337.84;4273225;33;20195;-58
2022/07/26 01:16:48;;;;;;;0.60;0.60;;;;;;;22.98;79.85;95330.50;4278589;33;20195;-58
2022/07/26 01:19:13;;;;;;;0.83;0.83;;;;;;;23.01;79.82;95318.94;4278626;33;20206;-58
2022/07/26 01:21:39;;;;;;;0.60;0.60;;;;;;;23.01;79.63;95327.06;4274719;33;20191;-58
2022/07/26 01:24:05;;;;;;;1.57;1.57;;;;;;;23.03;79.64;95336.37;4275555;33;20207;-58
2022/07/26 01:26:30;;;;;;;0.60;0.60;;;;;;;23.04;79.35;95337.16;4274422;33;20254;-58
2022/07/26 01:28:56;;;;;;;1.40;1.40;;;;;;;23.05;79.22;95333.28;4272315;33;20202;-58
2022/07/26 01:31:21;;;;;;;0.60;0.57;;;;;;;23.00;79.53;95331.69;4274121;33;20301;-58
2022/07/26 01:33:47;;;;;;;0.50;0.50;;;;;;;23.02;79.31;95329.41;4273391;33;20202;-58
2022/07/26 01:36:12;;;;;;;0.43;0.43;;;;;;;23.00;79.44;95331.69;4276471;33;20235;-58
2022/07/26 01:38:39;;;;;;;0.87;0.87;;;;;;;23.01;79.21;95333.25;4265649;33;20195;-58
2022/07/26 01:41:05;;;;;;;0.57;0.57;;;;;;;23.02;79.07;95334.81;4278407;33;20250;-58
2022/07/26 01:43:30;;;;;;;0.67;0.67;;;;;;;23.02;79.09;95334.81;4275050;33;20186;-58
2022/07/26 01:45:56;;;;;;;1.27;1.10;;;;;;;23.01;79.05;95333.25;4256478;33;20263;-58
2022/07/26 01:48:21;;;;;;;0.70;0.70;;;;;;;23.06;78.87;95330.22;4271938;33;20331;-59
2022/07/26 01:50:46;;;;;;;0.70;0.70;;;;;;;23.05;78.88;95333.28;4272236;33;20223;-58
2022/07/26 01:53:12;;;;;;;0.40;0.40;;;;;;;23.03;79.05;95335.59;4274679;33;20204;-58
2022/07/26 01:55:37;;;;;;;0.60;0.57;;;;;;;23.00;78.97;95337.13;4273513;33;20195;-58
2022/07/26 01:58:04;;;;;;;0.50;0.50;;;;;;;22.94;79.47;95328.53;4279554;33;20213;-58
2022/07/26 02:00:30;;;;;;;0.77;0.77;;;;;;;22.93;79.29;95331.63;4281509;33;20198;-58
2022/07/26 02:02:55;;;;;;;0.40;0.40;;;;;;;22.82;80.54;95330.75;4271805;33;20213;-58
2022/07/26 02:05:21;;;;;;;0.57;0.57;;;;;;;22.91;79.52;95323.88;4270619;33;20258;-58
2022/07/26 02:07:46;;;;;;;11.33;0.70;;;;;;;22.81;80.77;95323.78;4273756;33;20217;-59
2022/07/26 02:10:12;;;;;;;0.43;0.43;;;;;;;22.84;80.15;95323.81;4272130;33;20234;-58
2022/07/26 02:12:38;;;;;;;0.60;0.60;;;;;;;22.84;80.21;95323.81;4270227;33;20200;-59
2022/07/26 02:15:06;;;;;;;0.83;0.83;;;;;;;22.81;80.60;95323.78;4280995;33;20245;-58
2022/07/26 02:17:31;;;;;;;1.17;1.07;;;;;;;22.84;79.84;95318.41;4254622;33;20198;-58
2022/07/26 02:19:57;;;;;;;0.50;0.50;;;;;;;22.83;80.04;95321.50;4257571;33;20210;-58
2022/07/26 02:22:22;;;;;;;0.93;0.93;;;;;;;22.77;80.49;95314.81;4270712;33;20199;-58
2022/07/26 02:24:48;;;;;;;0.70;0.70;;;;;;;22.76;80.96;95327.56;4266338;33;20254;-58
2022/07/26 02:27:13;;;;;;;1.37;1.37;;;;;;;22.81;80.01;95324.56;4270716;33;20262;-58
2022/07/26 02:29:39;;;;;;;0.93;0.93;;;;;;;22.71;81.71;95332.53;4268803;33;20198;-58
2022/07/26 02:32:05;;;;;;;1.30;1.20;;;;;;;22.74;80.94;95334.50;4276889;33;20213;-58
2022/07/26 02:34:31;;;;;;;0.80;0.80;;;;;;;22.69;81.06;95341.00;4276384;33;20199;-58
2022/07/26 02:36:56;;;;;;;0.90;0.90;;;;;;;22.68;81.42;95339.44;4257011;33;20246;-58
2022/07/26 02:39:26;;;;;;;4.00;1.37;;;;;;;22.62;81.56;95338.25;4274506;33;20329;-58
2022/07/26 02:42:01;;;;;;;1.10;0.60;;;;;;;22.65;81.23;95336.72;4266858;33;23773;-58
2022/07/26 02:44:28;;;;;;;0.83;0.83;;;;;;;22.73;81.01;95332.94;4277431;33;20242;-58
2022/07/26 02:46:53;;;;;;;0.30;0.30;;;;;;;22.76;80.75;95334.91;4277066;33;20199;-58
2022/07/26 02:49:20;;;;;;;0.93;0.57;;;;;;;22.68;81.48;95331.34;4271804;33;20277;-58
2022/07/26 02:51:45;;;;;;;0.30;0.30;;;;;;;22.72;80.50;95334.88;4275189;33;20207;-57
2022/07/26 02:54:11;;;;;;;0.67;0.67;;;;;;;22.74;80.47;95339.91;4275474;33;20187;-58
2022/07/26 02:56:37;;;;;;;0.27;0.27;;;;;;;22.75;80.20;95339.53;4268249;33;20219;-58
2022/07/26 02:59:03;;;;;;;0.33;0.33;;;;;;;22.75;80.55;95336.81;4273345;33;20214;-58
2022/07/26 03:01:29;;;;;;;0.70;0.60;;;;;;;22.70;80.76;95344.50;4280240;33;20203;-57
2022/07/26 03:03:54;;;;;;;2.10;1.50;;;;;;;22.74;80.17;95342.59;4276550;33;20191;-58
2022/07/26 03:06:20;;;;;;;1.10;1.10;;;;;;;22.74;80.47;95334.50;4281679;33;20473;-58
2022/07/26 03:08:46;;;;;;;0.73;0.73;;;;;;;22.73;80.58;95335.63;4280721;33;20226;-58
2022/07/26 03:11:12;;;;;;;0.50;0.50;;;;;;;22.62;81.23;95332.84;4265830;33;20191;-58
2022/07/26 03:13:37;;;;;;;0.70;0.70;;;;;;;22.65;80.67;95331.31;4281917;33;20201;-58
2022/07/26 03:16:06;;;;;;;0.77;0.77;;;;;;;22.50;81.85;95331.16;4279138;33;20198;-58
2022/07/26 03:18:31;;;;;;;1.40;0.93;;;;;;;22.58;81.13;95330.09;4263311;33;20227;-58
2022/07/26 03:20:57;;;;;;;0.70;0.70;;;;;;;22.67;80.51;95329.78;4280082;33;20194;-58
2022/07/26 03:23:22;;;;;;;0.40;0.40;;;;;;;22.71;80.21;95336.00;4261856;33;20191;-57
2022/07/26 03:25:48;;;;;;;0.93;0.47;;;;;;;22.71;80.27;95335.22;4280292;33;20198;-57
2022/07/26 03:28:13;;;;;;;0.30;0.30;;;;;;;22.64;80.78;95341.34;4276687;33;20233;-58
2022/07/26 03:30:38;;;;;;;0.60;0.60;;;;;;;22.63;80.92;95337.88;4263856;33;20190;-58
2022/07/26 03:33:10;;;;;;;0.70;0.70;;;;;;;22.59;81.14;95342.47;4275027;33;20226;-58
2022/07/26 03:35:35;;;;;;;0.30;0.30;;;;;;;22.49;81.84;95334.22;4276056;33;20205;-58
2022/07/26 03:38:00;;;;;;;0.53;0.53;;;;;;;22.52;81.48;95328.84;4276565;33;20247;-58
2022/07/26 03:40:27;;;;;;;0.60;0.60;;;;;;;22.53;81.25;95333.12;4270694;33;20214;-58
2022/07/26 03:42:53;;;;;;;0.30;0.30;;;;;;;22.51;81.62;95332.69;4271885;33;20202;-58
2022/07/26 03:45:18;;;;;;;0.53;0.53;;;;;;;22.50;81.42;95333.84;4282410;33;20203;-58
2022/07/26 03:47:45;;;;;;;0.90;0.90;;;;;;;22.52;81.36;95336.97;4271907;33;20217;-58
2022/07/26 03:50:12;;;;;;;0.73;0.73;;;;;;;22.52;81.34;95328.06;4273703;33;20254;-58
2022/07/26 03:52:38;;;;;;;2.10;0.83;;;;;;;22.50;81.95;95330.38;4269775;33;20258;-58
2022/07/26 03:56:27;;;;;;;0.40;0.40;;;;;;;22.45;81.75;95326.06;4268892;33;20202;-58
2022/07/26 03:57:49;;;;;;;1.00;1.00;;;;;;;22.54;81.33;95331.19;4268636;33;20199;-58
2022/07/26 04:00:15;;;;;;;0.30;0.30;;;;;;;22.55;81.84;95316.53;4274772;33;20191;-58
2022/07/26 04:02:40;;;;;;;0.67;0.67;;;;;;;22.48;82.20;95309.09;4277654;33;20203;-58
2022/07/26 04:05:06;;;;;;;0.83;0.83;;;;;;;22.53;81.71;95311.47;4276600;33;20253;-58
2022/07/26 04:07:31;;;;;;;0.67;0.67;;;;;;;22.61;80.93;95326.66;4282437;33;20203;-58
2022/07/26 04:09:56;;;;;;;0.63;0.63;;;;;;;22.56;81.67;95329.69;4268356;33;20212;-58
2022/07/26 04:12:22;;;;;;;2.37;1.10;;;;;;;22.59;81.48;95337.06;4255439;33;20345;-58
2022/07/26 04:14:47;;;;;;;0.80;0.80;;;;;;;22.56;82.71;95332.38;4273609;33;20203;-58
2022/07/26 04:17:12;;;;;;;0.60;0.60;;;;;;;22.57;81.65;95331.22;4263720;33;20206;-58
2022/07/26 04:19:38;;;;;;;3.30;1.10;;;;;;;22.48;82.05;95332.66;4275354;33;20204;-58
2022/07/26 04:22:03;;;;;;;1.17;1.00;;;;;;;22.48;81.98;95335.38;4281461;33;20209;-58
2022/07/26 04:24:28;;;;;;;0.73;0.73;;;;;;;22.39;82.84;95327.56;4273665;33;20191;-58
2022/07/26 04:26:54;;;;;;;3.10;0.60;;;;;;;22.39;82.61;95340.28;4280618;33;20194;-58
2022/07/26 04:29:19;;;;;;;0.60;0.60;;;;;;;22.36;82.77;95352.63;4258313;33;20226;-58
2022/07/26 04:31:44;;;;;;;1.40;1.30;;;;;;;22.34;82.80;95354.91;4280881;33;20205;-58
2022/07/26 04:34:10;;;;;;;6.23;1.63;;;;;;;22.40;82.74;95353.44;4273926;33;20199;-58
2022/07/26 04:36:35;;;;;;;0.93;0.93;;;;;;;22.43;82.39;95354.63;4259543;33;20235;-58
2022/07/26 04:39:00;;;;;;;1.20;0.63;;;;;;;22.51;82.27;95348.16;4276184;33;20190;-59
2022/07/26 04:41:26;;;;;;;3.80;0.60;;;;;;;22.45;82.31;95349.63;4274654;33;20187;-58
2022/07/26 04:43:51;;;;;;;0.83;0.83;;;;;;;22.33;82.91;95356.06;4274496;33;20262;-58
2022/07/26 04:46:18;;;;;;;0.57;0.57;;;;;;;22.31;83.16;95360.25;4257416;33;20199;-58
2022/07/26 04:48:43;;;;;;;1.03;0.80;;;;;;;22.34;82.88;95352.19;4263187;33;20237;-58
2022/07/26 04:51:08;;;;;;;0.77;0.77;;;;;;;22.39;82.47;95353.81;4255036;33;20191;-58
2022/07/26 04:53:34;;;;;;;0.67;0.67;;;;;;;22.44;82.17;95354.28;4260427;33;20206;-57
2022/07/26 04:55:59;;;;;;;0.93;0.93;;;;;;;22.40;82.99;95353.44;4261325;33;20199;-59
2022/07/26 04:58:24;;;;;;;1.10;1.10;;;;;;;22.42;82.08;95351.16;4258765;33;20242;-58
2022/07/26 05:00:50;;;;;;;0.93;0.93;;;;;;;22.35;82.43;95356.47;4260036;33;20199;-58
2022/07/26 05:03:15;;;;;;;0.90;0.90;;;;;;;22.39;82.11;95360.00;4256119;33;20239;-58
2022/07/26 05:05:40;;;;;;;1.13;1.13;;;;;;;22.37;82.25;95359.59;4259086;33;20253;-58
2022/07/26 05:08:06;;;;;;;0.93;0.93;;;;;;;22.32;82.57;95362.59;4257282;33;20230;-58
2022/07/26 05:10:36;;;;;;;6.90;1.13;;;;;;;22.39;82.14;95365.41;4240485;33;20187;-58
2022/07/26 05:13:06;;;;;;;1.00;1.00;;;;;;;22.42;82.49;95364.66;4255264;33;20214;-58
2022/07/26 05:15:33;;;;;;;0.50;0.50;;;;;;;22.39;82.57;95362.69;4257221;33;20191;-58
2022/07/26 05:18:04;;;;;;;0.50;0.50;;;;;;;22.38;82.50;95371.97;4254845;33;20210;-58
2022/07/26 05:20:29;;;;;;;0.60;0.60;;;;;;;22.34;82.73;95367.66;4233674;33;20278;-57
2022/07/26 05:22:56;;;;;;;0.90;0.90;;;;;;;22.36;82.28;95366.13;4250539;33;20260;-58
2022/07/26 05:25:21;;;;;;;0.83;0.57;;;;;;;22.29;82.91;95366.03;4253971;33;20191;-57
2022/07/26 05:27:47;;;;;;;1.23;1.20;;;;;;;22.33;82.70;95369.56;4255326;33;20183;-58
2022/07/26 05:30:12;;;;;;;0.30;0.30;;;;;;;22.35;82.35;95366.50;4247417;33;20305;-58
2022/07/26 05:32:38;;;;;;;0.93;0.93;;;;;;;22.38;82.12;95361.13;4269315;33;20205;-58
2022/07/26 05:35:04;;;;;;;1.13;1.13;;;;;;;22.35;82.46;95364.56;4254059;33;20253;-58
2022/07/26 05:37:30;;;;;;;0.93;0.93;;;;;;;22.42;81.92;95364.66;4258793;33;20251;-58
2022/07/26 05:39:55;;;;;;;1.00;1.00;;;;;;;22.32;82.52;95367.22;4254514;33;20211;-59
2022/07/26 05:42:21;;;;;;;1.00;1.00;;;;;;;22.37;82.15;95370.41;4255193;33;20304;-58
2022/07/26 05:44:46;;;;;;;0.60;0.60;;;;;;;22.42;82.10;95374.72;4255937;33;20227;-58
2022/07/26 05:47:11;;;;;;;1.67;1.50;;;;;;;22.43;81.78;95368.94;4271538;33;20206;-58
2022/07/26 05:49:37;;;;;;;0.80;0.80;;;;;;;22.46;81.95;95372.81;4266943;33;20198;-58
2022/07/26 05:52:03;;;;;;;0.90;0.90;;;;;;;22.06;83.71;95360.72;4280345;33;20195;-57
2022/07/26 05:54:28;;;;;;;1.23;1.23;;;;;;;22.17;83.21;95371.69;4271730;33;20220;-58
2022/07/26 05:56:53;;;;;;;1.03;1.03;;;;;;;22.26;82.26;95374.87;4279391;33;20196;-58
2022/07/26 05:59:18;;;;;;;1.67;1.50;;;;;;;22.10;83.01;95371.56;4258825;33;20219;-58
2022/07/26 06:01:44;;;;;;;2.23;1.47;;;;;;;22.16;82.74;95379.00;4280354;33;20239;-58
2022/07/26 06:04:09;;;;;;;1.13;1.10;;;;;;;22.17;82.67;95377.09;4262174;33;20198;-58
2022/07/26 06:06:35;;;;;;;1.57;1.47;;;;;;;21.95;84.11;95371.34;4271155;33;20214;-59
2022/07/26 06:09:00;;;;;;;0.77;0.77;;;;;;;21.99;84.03;95382.22;4291282;33;20198;-59
2022/07/26 06:11:25;;;;;;;1.13;1.07;;;;;;;22.18;83.07;95384.06;4269320;33;20194;-59
2022/07/26 06:13:51;;;;;;;0.63;0.63;;;;;;;21.99;83.59;95371.41;4269080;33;20261;-58
2022/07/26 06:16:16;;;;;;;1.40;1.37;;;;;;;21.26;87.25;95377.97;4272772;33;20242;-59
2022/07/26 06:18:42;;;;;;;0.87;0.87;;;;;;;21.14;88.79;95389.72;4272360;33;20259;-59
2022/07/26 06:21:07;;;;;;;2.33;0.83;;;;;;;20.89;90.11;95383.88;4275598;33;20199;-59
2022/07/26 06:23:32;;;;;;;0.43;0.43;;;;;;;20.70;90.99;95383.09;4273812;33;20254;-61
2022/07/26 06:25:58;;;;;;;0.90;0.90;;;;;;;20.52;91.70;95378.16;4279504;33;20271;-59
2022/07/26 06:28:23;;;;;;;0.60;0.60;;;;;;;20.63;92.22;95380.25;4277108;33;20202;-59
2022/07/26 06:30:49;;;;;;;1.20;1.10;;;;;;;20.69;90.77;95386.94;4275496;33;20214;-60
2022/07/26 06:33:14;;;;;;;2.30;1.07;;;;;;;20.59;91.37;95394.44;4272081;33;20194;-59
2022/07/26 06:35:41;;;;;;;7.23;1.80;;;;;;;20.55;90.95;95390.16;4279745;33;20208;-61
2022/07/26 06:38:07;;;;;;;4.93;1.10;;;;;;;20.61;91.18;95390.63;4276654;33;20195;-59
2022/07/26 06:40:33;;;;;;;2.70;0.90;;;;;;;20.42;91.75;95381.41;4278070;33;20202;-59
2022/07/26 06:43:00;;;;;;;3.40;1.27;;;;;;;20.63;90.22;95391.03;4278650;33;20239;-59
2022/07/26 06:45:28;;;;;;;0.63;0.60;;;;;;;20.29;92.00;95393.44;4276655;33;20238;-59
2022/07/26 06:47:53;;;;;;;0.70;0.70;;;;;;;20.35;92.19;95400.09;4274953;33;20296;-59
2022/07/26 06:50:19;;;;;;;0.50;0.50;;;;;;;20.39;92.07;95400.97;4278423;33;20199;-59
2022/07/26 06:52:44;;;;;;;1.07;1.07;;;;;;;20.45;92.30;95399.56;4275669;33;20250;-60
2022/07/26 06:55:11;;;;;;;0.97;0.97;;;;;;;20.43;92.53;95399.13;4279676;33;20213;-59
2022/07/26 06:57:37;;;;;;;3.47;1.30;;;;;;;20.48;91.99;95404.25;4281769;33;20246;-61
2022/07/26 07:00:05;;;;;;;0.80;0.80;;;;;;;20.49;91.96;95405.03;4278477;33;20207;-62
2022/07/26 07:02:30;;;;;;;1.63;1.47;;;;;;;20.64;91.05;95403.41;4274330;33;20191;-61
2022/07/26 07:04:56;;;;;;;1.30;1.20;;;;;;;20.36;92.67;95409.75;4280613;33;20201;-61
2022/07/26 07:07:21;;;;;;;0.60;0.60;;;;;;;20.27;93.89;95408.38;4273893;33;20218;-61
2022/07/26 07:09:47;;;;;;;0.50;0.50;;;;;;;20.26;95.15;95402.22;4277170;33;20238;-62
2022/07/26 07:12:14;;;;;;;0.60;0.60;;;;;;;20.50;94.20;95407.38;4278199;33;20242;-61
2022/07/26 07:14:39;;;;;;;1.00;1.00;;;;;;;20.35;93.61;95410.88;4275018;33;20201;-61
2022/07/26 07:17:05;;;;;;;0.67;0.67;;;;;;;20.27;94.69;95409.16;4280347;33;20481;-60
2022/07/26 07:19:34;;;;;;;0.83;0.83;;;;;;;20.32;95.55;95405.41;4276365;33;20238;-60
2022/07/26 07:21:59;;;;;;;1.20;1.20;;;;;;;20.15;96.52;95407.38;4281729;33;20209;-61
2022/07/26 07:24:24;;;;;;;0.60;0.60;;;;;;;20.19;96.56;95408.22;4264550;33;20195;-61
2022/07/26 07:26:50;;;;;;;0.50;0.50;;;;;;;20.31;95.78;95404.66;4282129;33;20221;-63
2022/07/26 07:29:16;;;;;;;1.10;1.10;;;;;;;20.45;94.82;95404.97;4274418;33;20235;-61
2022/07/26 07:31:44;;;;;;;1.87;1.77;;;;;;;20.39;95.21;95411.75;4269889;33;20183;-61
2022/07/26 07:34:09;;;;;;;0.60;0.60;;;;;;;20.46;92.80;95422.69;4274357;33;20262;-61
2022/07/26 07:36:35;;;;;;;2.33;1.70;;;;;;;20.54;91.57;95427.09;4268248;33;20206;-61
2022/07/26 07:39:00;;;;;;;0.97;0.97;;;;;;;20.53;90.66;95425.53;4275770;33;20206;-61
2022/07/26 07:41:25;;;;;;;0.37;0.37;;;;;;;20.41;90.63;95427.56;4269905;33;20261;-60
2022/07/26 07:43:51;;;;;;;1.00;1.00;;;;;;;20.17;90.16;95426.66;4258735;33;20205;-61
2022/07/26 07:46:16;;;;;;;0.87;0.87;;;;;;;19.83;91.81;95428.19;4278338;33;20249;-62
2022/07/26 07:48:41;;;;;;;0.83;0.83;;;;;;;20.14;91.62;95421.22;4264166;33;20199;-61
2022/07/26 07:51:07;;;;;;;0.83;0.83;;;;;;;20.10;91.39;95414.97;4280948;33;20233;-61
2022/07/26 07:53:32;;;;;;;0.40;0.40;;;;;;;19.88;93.09;95425.25;4276609;33;20229;-63
2022/07/26 07:55:58;;;;;;;0.50;0.50;;;;;;;19.95;92.61;95429.25;4284109;33;20214;-61
2022/07/26 07:58:24;;;;;;;1.73;0.53;;;;;;;19.75;94.23;95431.84;4281875;33;20263;-60
2022/07/26 08:00:49;;;;;;;0.80;0.80;;;;;;;19.91;92.92;95434.53;4285001;33;20266;-61
2022/07/26 08:03:15;;;;;;;0.93;0.93;;;;;;;19.72;92.15;95432.56;4259260;33;20213;-61
2022/07/26 08:05:41;;;;;;;0.93;0.93;;;;;;;20.00;92.19;95431.66;4271156;33;20299;-61
2022/07/26 08:08:06;;;;;;;0.93;0.93;;;;;;;19.93;92.97;95432.28;4283181;33;20237;-60
2022/07/26 08:10:32;;;;;;;0.27;0.27;;;;;;;20.10;91.86;95420.34;4282021;33;20198;-60
2022/07/26 08:12:57;;;;;;;0.60;0.60;;;;;;;20.12;91.59;95426.16;4282402;33;20267;-60
2022/07/26 08:15:22;;;;;;;0.60;0.60;;;;;;;20.29;92.01;95427.69;4271071;33;20288;-61
2022/07/26 08:17:49;;;;;;;0.97;0.93;;;;;;;20.09;91.90;95434.94;4281937;33;20194;-61
2022/07/26 08:20:14;;;;;;;0.53;0.53;;;;;;;20.25;91.69;95438.38;4270567;33;20196;-60
2022/07/26 08:22:40;;;;;;;0.70;0.70;;;;;;;20.27;91.45;95433.41;4273723;33;20210;-60
2022/07/26 08:25:06;;;;;;;0.13;0.13;;;;;;;20.12;92.46;95439.62;4278341;33;20186;-61
2022/07/26 08:27:31;;;;;;;0.70;0.70;;;;;;;19.91;93.53;95448.00;4268363;33;20195;-61
2022/07/26 08:29:57;;;;;;;0.90;0.90;;;;;;;19.96;93.88;95446.94;4274720;33;20254;-60
2022/07/26 08:32:22;;;;;;;0.73;0.73;;;;;;;20.04;93.43;95459.44;4274199;33;20298;-61
2022/07/26 08:34:47;;;;;;;1.23;1.03;;;;;;;19.69;95.21;95454.81;4260417;33;20214;-61
2022/07/26 08:37:13;;;;;;;1.10;1.00;;;;;;;19.88;94.88;95457.56;4281688;33;20234;-61
2022/07/26 08:39:38;;;;;;;0.87;0.87;;;;;;;19.87;95.22;95466.00;4267995;33;20218;-60
2022/07/26 08:42:18;;;;;;;1.20;1.00;;;;;;;19.86;95.23;95450.97;4268866;33;20206;-60
2022/07/26 08:44:45;;;;;;;0.80;0.80;;;;;;;20.03;94.72;95452.50;4273083;33;20194;-60
2022/07/26 08:47:12;;;;;;;0.50;0.50;;;;;;;19.98;95.08;95450.84;4273473;33;20200;-60
2022/07/26 08:49:38;;;;;;;3.37;1.13;;;;;;;20.08;94.60;95455.72;4274878;33;20238;-59
2022/07/26 08:52:04;;;;;;;1.50;1.40;;;;;;;19.87;94.14;95456.00;4274634;33;20198;-60
2022/07/26 08:54:29;;;;;;;2.37;1.00;;;;;;;19.88;95.25;95454.09;4278790;33;20208;-59
2022/07/26 08:56:55;;;;;;;0.70;0.70;;;;;;;20.15;94.02;95452.41;4262279;33;20191;-59
2022/07/26 08:59:20;;;;;;;2.30;0.80;;;;;;;19.81;95.62;95446.62;4280332;33;20213;-59
2022/07/26 09:01:57;;;;;;;0.57;0.57;;;;;;;19.85;95.71;95446.72;4278095;33;20187;-60
2022/07/26 09:04:28;;;;;;;1.50;1.27;;;;;;;19.91;95.48;95456.09;4277358;33;20277;-59
2022/07/26 09:07:03;;;;;;;3.67;1.33;;;;;;;19.90;95.93;95455.31;4279512;33;20282;-59
2022/07/26 09:09:30;;;;;;;1.63;1.53;;;;;;;20.08;94.87;95460.31;4273095;33;20186;-59
2022/07/26 09:11:56;;;;;;;0.80;0.80;;;;;;;19.98;94.41;95466.22;4263471;33;20208;-59
2022/07/26 09:14:35;;;;;;;0.60;0.60;;;;;;;20.08;94.47;95466.50;4265159;33;20231;-59
2022/07/26 09:17:00;;;;;;;0.60;0.60;;;;;;;20.11;94.75;95473.09;4271031;33;20214;-60
2022/07/26 09:19:26;;;;;;;0.73;0.73;;;;;;;20.08;93.81;95477.25;4272311;33;20191;-59
2022/07/26 09:21:54;;;;;;;2.03;0.77;;;;;;;19.79;95.02;95469.62;4278260;33;20258;-60
2022/07/26 09:24:49;;;;;;;0.90;0.87;;;;;;;19.99;94.61;95481.25;4253088;33;20171;-59
2022/07/26 09:27:16;;;;;;;3.53;1.50;;;;;;;20.04;94.38;95472.91;4242961;33;20191;-59
2022/07/26 09:29:53;;;;;;;0.70;0.70;;;;;;;20.24;94.25;95464.53;4258826;33;20187;-60
2022/07/26 09:32:23;;;;;;;0.90;0.90;;;;;;;20.24;94.00;95469.16;4257611;33;20195;-59
2022/07/26 09:34:55;;;;;;;0.57;0.57;;;;;;;19.97;95.12;95461.97;4256724;33;20199;-60
2022/07/26 09:37:38;;;;;;;0.47;0.47;;;;;;;20.11;94.83;95463.09;4249472;33;20235;-59
2022/07/26 09:40:07;;;;;;;0.73;0.73;;;;;;;20.20;94.59;95465.59;4261173;33;20206;-62
2022/07/26 09:42:33;;;;;;;1.00;1.00;;;;;;;20.06;94.43;95462.56;4269960;33;20202;-59
2022/07/26 09:44:58;;;;;;;0.30;0.30;;;;;;;20.28;93.86;95456.53;4278057;33;20214;-60
2022/07/26 09:47:39;;;;;;;0.80;0.80;;;;;;;20.36;93.11;95454.78;4282396;33;20209;-59
2022/07/26 09:50:13;;;;;;;0.90;0.90;;;;;;;20.33;93.68;95456.28;4269440;33;20225;-60
2022/07/26 09:52:39;;;;;;;2.47;1.03;;;;;;;20.19;94.02;95462.09;4272808;33;20190;-60
2022/07/26 09:55:07;;;;;;;0.60;0.60;;;;;;;20.33;93.64;95456.28;4273965;33;20235;-60
2022/07/26 09:57:34;;;;;;;1.03;1.03;;;;;;;20.10;94.64;95458.06;4273515;33;20233;-59
2022/07/26 10:00:05;;;;;;;0.50;0.50;;;;;;;20.43;93.20;95458.44;4280435;33;20213;-59
2022/07/26 10:02:31;;;;;;;0.60;0.60;;;;;;;20.46;93.05;95459.66;4276062;33;20191;-60
2022/07/26 10:04:57;;;;;;;0.63;0.60;;;;;;;20.43;93.20;95455.75;4281750;33;20190;-59
2022/07/26 10:07:22;;;;;;;0.43;0.43;;;;;;;20.59;93.05;95458.37;4276570;33;20336;-60
2022/07/26 10:09:53;;;;;;;0.73;0.73;;;;;;;20.66;92.33;95452.34;4271097;33;20230;-60
2022/07/26 10:12:21;;;;;;;0.60;0.60;;;;;;;20.65;92.19;95456.97;4269057;33;20245;-60
2022/07/26 10:14:50;;;;;;;0.60;0.60;;;;;;;20.92;91.04;95449.81;4279061;33;20257;-59
2022/07/26 10:17:27;;;;;;;1.07;0.97;;;;;;;20.85;92.70;95449.66;4277451;33;20199;-60
2022/07/26 10:19:54;;;;;;;1.30;1.20;;;;;;;21.00;91.01;95456.88;4282878;33;20209;-59
2022/07/26 10:22:33;;;;;;;1.00;1.00;;;;;;;20.94;92.59;95458.31;4277064;33;20253;-60
2022/07/26 10:25:16;;;;;;;2.47;1.33;;;;;;;21.20;92.16;95458.44;4290911;33;20197;-60
2022/07/26 10:27:49;;;;;;;0.80;0.80;;;;;;;21.37;90.61;95451.06;4274140;33;20217;-60
2022/07/26 10:30:14;;;;;;;1.40;0.97;;;;;;;21.18;88.43;95441.84;4276226;33;20236;-59
2022/07/26 10:32:52;;;;;;;0.30;0.30;;;;;;;21.43;88.74;95444.19;4293686;33;20194;-59
2022/07/26 10:35:43;;;;;;;1.07;1.07;;;;;;;21.60;88.46;95443.75;4289965;33;20190;-59
2022/07/26 10:38:20;;;;;;;0.47;0.47;;;;;;;21.73;88.61;95434.31;4294858;33;20294;-59
2022/07/26 10:40:58;;;;;;;0.70;0.70;;;;;;;21.99;85.95;95447.06;4295056;33;20217;-60
2022/07/26 10:43:24;;;;;;;0.20;0.20;;;;;;;22.19;84.81;95440.44;4296208;33;20265;-59
2022/07/26 10:46:16;;;;;;;0.47;0.47;;;;;;;22.07;82.69;95447.97;4296580;33;20238;-59
2022/07/26 10:49:07;;;;;;;1.90;1.47;;;;;;;22.00;84.40;95451.37;4288180;33;20190;-59
2022/07/26 10:51:34;;;;;;;0.43;0.43;;;;;;;22.18;84.56;95451.63;4280600;33;20201;-60
2022/07/26 10:54:01;;;;;;;0.63;0.63;;;;;;;22.18;84.11;95444.28;4284655;33;20191;-60
2022/07/26 10:56:28;;;;;;;1.03;1.03;;;;;;;22.17;84.90;95447.34;4279477;33;20189;-60
2022/07/26 10:58:53;;;;;;;0.50;0.50;;;;;;;22.09;82.79;95448.38;4270761;33;20262;-59
2022/07/26 11:01:19;;;;;;;0.50;0.50;;;;;;;22.04;83.32;95443.28;4288588;33;20217;-60
2022/07/26 11:03:45;;;;;;;0.33;0.33;;;;;;;22.15;83.45;95436.13;4288775;33;20202;-59
2022/07/26 11:06:16;;;;;;;0.67;0.67;;;;;;;22.00;83.68;95442.44;4276020;33;20245;-59
2022/07/26 11:08:44;;;;;;;0.70;0.70;;;;;;;22.12;78.84;95448.44;4280013;33;20217;-59
2022/07/26 11:11:09;;;;;;;0.40;0.40;;;;;;;22.09;79.79;95445.69;4292375;33;20202;-60
2022/07/26 11:13:36;;;;;;;0.67;0.67;;;;;;;22.16;79.48;95451.19;4280609;33;20197;-59
2022/07/26 11:16:10;;;;;;;2.17;2.07;;;;;;;22.15;80.25;95441.53;4297331;33;20204;-59
2022/07/26 11:18:38;;;;;;;0.63;0.63;;;;;;;22.18;79.56;95448.91;4283013;33;20193;-61
2022/07/26 11:21:12;;;;;;;0.40;0.40;;;;;;;22.29;79.32;95436.31;4276937;33;20191;-60
2022/07/26 11:23:39;;;;;;;0.30;0.30;;;;;;;22.26;79.03;95434.34;4261038;33;20285;-59
2022/07/26 11:26:09;;;;;;;1.07;0.97;;;;;;;22.35;80.92;95431.38;4286439;33;20208;-59
2022/07/26 11:28:49;;;;;;;0.50;0.50;;;;;;;22.35;77.93;95432.16;4284031;33;20209;-59
2022/07/26 11:31:15;;;;;;;7.37;0.73;;;;;;;22.41;78.32;95427.22;4281254;33;20190;-59
2022/07/26 11:33:44;;;;;;;1.47;0.73;;;;;;;22.62;79.67;95430.97;4285787;33;20213;-59